sensor_id;sensor_type;location;lat;lon;timestamp;temperature;humidity
6307;DHT22;3186;54.062;9.962;2022-10-16T00:01:36;14.30;99.90
6307;DHT22;3186;54.062;9.962;2022-10-16T00:04:03;14.30;99.90
6307;DHT22;3186;54.062;9.962;2022-10-16T00:06:30;14.30;99.90
6307;DHT22;3186;54.062;9.962;2022-10-16T00:08:56;14.20;99.90
6307;DHT22;3186;54.062;9.962;2022-10-16T00:11:36;14.20;99.90
6307;DHT22;3186;54.062;9.962;2022-10-16T00:14:05;14.20;99.90
6307;DHT22;3186;54.062;9.962;2022-10-16T00:16:31;14.20;99.90
6307;DHT22;3186;54.062;9.962;2022-10-16T00:18:57;14.20;99.90
6307;DHT22;3186;54.062;9.962;2022-10-16T00:21:25;14.20;99.90
6307;DHT22;3186;54.062;9.962;2022-10-16T00:23:58;14.20;99.90
6307;DHT22;3186;54.062;9.962;2022-10-16T00:26:26;14.10;99.90
6307;DHT22;3186;54.062;9.962;2022-10-16T00:28:52;14.20;99.90
6307;DHT22;3186;54.062;9.962;2022-10-16T00:31:19;14.10;99.90
6307;DHT22;3186;54.062;9.962;2022-10-16T00:33:45;14.10;99.90
6307;DHT22;3186;54.062;9.962;2022-10-16T00:36:14;14.10;99.90
6307;DHT22;3186;54.062;9.962;2022-10-16T00:38:40;14.10;99.90
6307;DHT22;3186;54.062;9.962;2022-10-16T00:41:07;14.10;99.90
6307;DHT22;3186;54.062;9.962;2022-10-16T00:44:01;14.10;99.90
6307;DHT22;3186;54.062;9.962;2022-10-16T00:46:41;14.00;99.90
6307;DHT22;3186;54.062;9.962;2022-10-16T00:49:12;14.00;99.90
6307;DHT22;3186;54.062;9.962;2022-10-16T00:51:45;14.00;99.90
6307;DHT22;3186;54.062;9.962;2022-10-16T00:54:22;14.00;99.90
6307;DHT22;3186;54.062;9.962;2022-10-16T00:56:49;14.00;99.90
6307;DHT22;3186;54.062;9.962;2022-10-16T00:59:18;13.90;99.90
6307;DHT22;3186;54.062;9.962;2022-10-16T01:01:45;13.90;99.90
6307;DHT22;3186;54.062;9.962;2022-10-16T01:04:11;13.80;99.90
6307;DHT22;3186;54.062;9.962;2022-10-16T01:06:50;13.80;99.90
6307;DHT22;3186;54.062;9.962;2022-10-16T01:12:10;13.80;99.90
6307;DHT22;3186;54.062;9.962;2022-10-16T01:14:48;13.80;99.90
6307;DHT22;3186;54.062;9.962;2022-10-16T01:17:34;13.80;99.90
6307;DHT22;3186;54.062;9.962;2022-10-16T01:28:24;13.70;99.90
6307;DHT22;3186;54.062;9.962;2022-10-16T01:30:54;13.70;99.90
6307;DHT22;3186;54.062;9.962;2022-10-16T01:33:26;13.60;99.90
6307;DHT22;3186;54.062;9.962;2022-10-16T01:36:02;13.60;99.90
6307;DHT22;3186;54.062;9.962;2022-10-16T01:38:35;13.60;99.90
6307;DHT22;3186;54.062;9.962;2022-10-16T01:41:08;13.60;99.90
6307;DHT22;3186;54.062;9.962;2022-10-16T01:43:45;13.70;99.90
6307;DHT22;3186;54.062;9.962;2022-10-16T01:46:13;13.60;99.90
6307;DHT22;3186;54.062;9.962;2022-10-16T01:48:39;13.60;99.90
6307;DHT22;3186;54.062;9.962;2022-10-16T01:51:10;13.60;99.90
6307;DHT22;3186;54.062;9.962;2022-10-16T01:53:37;13.60;99.90
6307;DHT22;3186;54.062;9.962;2022-10-16T01:56:07;13.60;99.90
6307;DHT22;3186;54.062;9.962;2022-10-16T01:58:40;13.60;99.90
6307;DHT22;3186;54.062;9.962;2022-10-16T02:01:10;13.60;99.90
6307;DHT22;3186;54.062;9.962;2022-10-16T02:03:38;13.60;99.90
6307;DHT22;3186;54.062;9.962;2022-10-16T02:06:06;13.50;99.90
6307;DHT22;3186;54.062;9.962;2022-10-16T02:08:33;13.50;99.90
6307;DHT22;3186;54.062;9.962;2022-10-16T02:11:00;13.50;99.90
6307;DHT22;3186;54.062;9.962;2022-10-16T02:13:37;13.50;99.90
6307;DHT22;3186;54.062;9.962;2022-10-16T02:16:04;13.50;99.90
6307;DHT22;3186;54.062;9.962;2022-10-16T02:18:30;13.40;99.90
6307;DHT22;3186;54.062;9.962;2022-10-16T02:21:23;13.40;99.90
6307;DHT22;3186;54.062;9.962;2022-10-16T02:29:11;13.40;99.90
6307;DHT22;3186;54.062;9.962;2022-10-16T02:31:41;13.40;99.90
6307;DHT22;3186;54.062;9.962;2022-10-16T02:34:08;13.30;99.90
6307;DHT22;3186;54.062;9.962;2022-10-16T02:36:38;13.40;99.90
6307;DHT22;3186;54.062;9.962;2022-10-16T02:39:05;13.40;99.90
6307;DHT22;3186;54.062;9.962;2022-10-16T02:41:32;13.50;99.90
6307;DHT22;3186;54.062;9.962;2022-10-16T02:43:58;13.40;99.90
6307;DHT22;3186;54.062;9.962;2022-10-16T02:46:24;13.40;99.90
6307;DHT22;3186;54.062;9.962;2022-10-16T02:48:49;13.40;99.90
6307;DHT22;3186;54.062;9.962;2022-10-16T02:51:15;13.40;99.90
6307;DHT22;3186;54.062;9.962;2022-10-16T02:53:41;13.30;99.90
6307;DHT22;3186;54.062;9.962;2022-10-16T02:56:07;13.30;99.90
6307;DHT22;3186;54.062;9.962;2022-10-16T02:58:33;13.20;99.90
6307;DHT22;3186;54.062;9.962;2022-10-16T03:00:59;13.20;99.90
6307;DHT22;3186;54.062;9.962;2022-10-16T03:03:25;13.20;99.90
6307;DHT22;3186;54.062;9.962;2022-10-16T03:05:51;13.20;99.90
6307;DHT22;3186;54.062;9.962;2022-10-16T03:08:17;13.20;99.90
6307;DHT22;3186;54.062;9.962;2022-10-16T03:10:42;13.20;99.90
6307;DHT22;3186;54.062;9.962;2022-10-16T03:13:08;13.20;99.90
6307;DHT22;3186;54.062;9.962;2022-10-16T03:15:34;13.20;99.90
6307;DHT22;3186;54.062;9.962;2022-10-16T03:18:00;13.20;99.90
6307;DHT22;3186;54.062;9.962;2022-10-16T03:20:26;13.20;99.90
6307;DHT22;3186;54.062;9.962;2022-10-16T03:22:52;13.10;99.90
6307;DHT22;3186;54.062;9.962;2022-10-16T03:25:18;13.20;99.90
6307;DHT22;3186;54.062;9.962;2022-10-16T03:27:43;13.10;99.90
6307;DHT22;3186;54.062;9.962;2022-10-16T03:30:10;13.00;99.90
6307;DHT22;3186;54.062;9.962;2022-10-16T03:32:36;13.10;99.90
6307;DHT22;3186;54.062;9.962;2022-10-16T03:35:02;13.10;99.90
6307;DHT22;3186;54.062;9.962;2022-10-16T03:37:28;13.10;99.90
6307;DHT22;3186;54.062;9.962;2022-10-16T03:39:53;13.00;99.90
6307;DHT22;3186;54.062;9.962;2022-10-16T03:42:19;13.00;99.90
6307;DHT22;3186;54.062;9.962;2022-10-16T03:44:45;13.10;99.90
6307;DHT22;3186;54.062;9.962;2022-10-16T03:47:11;13.10;99.90
6307;DHT22;3186;54.062;9.962;2022-10-16T03:49:37;13.10;99.90
6307;DHT22;3186;54.062;9.962;2022-10-16T03:52:03;13.00;99.90
6307;DHT22;3186;54.062;9.962;2022-10-16T03:54:28;13.00;99.90
6307;DHT22;3186;54.062;9.962;2022-10-16T03:56:54;12.90;99.90
6307;DHT22;3186;54.062;9.962;2022-10-16T03:59:20;12.90;99.90
6307;DHT22;3186;54.062;9.962;2022-10-16T04:01:46;12.90;99.90
6307;DHT22;3186;54.062;9.962;2022-10-16T04:04:12;13.00;99.90
6307;DHT22;3186;54.062;9.962;2022-10-16T04:06:37;12.90;99.90
6307;DHT22;3186;54.062;9.962;2022-10-16T04:09:03;13.00;99.90
6307;DHT22;3186;54.062;9.962;2022-10-16T04:11:29;12.90;99.90
6307;DHT22;3186;54.062;9.962;2022-10-16T04:13:55;13.00;99.90
6307;DHT22;3186;54.062;9.962;2022-10-16T04:16:21;12.90;99.90
6307;DHT22;3186;54.062;9.962;2022-10-16T04:18:47;12.80;99.90
6307;DHT22;3186;54.062;9.962;2022-10-16T04:21:13;12.70;99.90
6307;DHT22;3186;54.062;9.962;2022-10-16T04:23:39;12.70;99.90
6307;DHT22;3186;54.062;9.962;2022-10-16T04:26:04;12.70;99.90
6307;DHT22;3186;54.062;9.962;2022-10-16T04:28:30;12.70;99.90
6307;DHT22;3186;54.062;9.962;2022-10-16T04:30:56;12.80;99.90
6307;DHT22;3186;54.062;9.962;2022-10-16T04:33:22;12.80;99.90
6307;DHT22;3186;54.062;9.962;2022-10-16T04:35:48;12.80;99.90
6307;DHT22;3186;54.062;9.962;2022-10-16T04:38:21;12.70;99.90
6307;DHT22;3186;54.062;9.962;2022-10-16T04:40:46;12.70;99.90
6307;DHT22;3186;54.062;9.962;2022-10-16T04:43:12;12.70;99.90
6307;DHT22;3186;54.062;9.962;2022-10-16T04:45:38;12.70;99.90
6307;DHT22;3186;54.062;9.962;2022-10-16T04:48:04;12.70;99.90
6307;DHT22;3186;54.062;9.962;2022-10-16T04:50:30;12.70;99.90
6307;DHT22;3186;54.062;9.962;2022-10-16T04:53:14;12.70;99.90
6307;DHT22;3186;54.062;9.962;2022-10-16T04:55:41;12.70;99.90
6307;DHT22;3186;54.062;9.962;2022-10-16T04:58:07;12.60;99.90
6307;DHT22;3186;54.062;9.962;2022-10-16T05:00:34;12.70;99.90
6307;DHT22;3186;54.062;9.962;2022-10-16T05:03:00;12.70;99.90
6307;DHT22;3186;54.062;9.962;2022-10-16T05:05:27;12.70;99.90
6307;DHT22;3186;54.062;9.962;2022-10-16T05:07:53;12.70;99.90
6307;DHT22;3186;54.062;9.962;2022-10-16T05:10:19;12.70;99.90
6307;DHT22;3186;54.062;9.962;2022-10-16T05:12:46;12.70;99.90
6307;DHT22;3186;54.062;9.962;2022-10-16T05:15:12;12.70;99.90
6307;DHT22;3186;54.062;9.962;2022-10-16T05:17:37;12.70;99.90
6307;DHT22;3186;54.062;9.962;2022-10-16T05:20:04;12.60;99.90
6307;DHT22;3186;54.062;9.962;2022-10-16T05:22:30;12.70;99.90
6307;DHT22;3186;54.062;9.962;2022-10-16T05:24:56;12.70;99.90
6307;DHT22;3186;54.062;9.962;2022-10-16T05:27:22;12.60;99.90
6307;DHT22;3186;54.062;9.962;2022-10-16T05:29:48;12.60;99.90
6307;DHT22;3186;54.062;9.962;2022-10-16T05:32:18;12.60;99.90
6307;DHT22;3186;54.062;9.962;2022-10-16T05:34:45;12.60;99.90
6307;DHT22;3186;54.062;9.962;2022-10-16T05:37:11;12.60;99.90
6307;DHT22;3186;54.062;9.962;2022-10-16T05:39:38;12.60;99.90
6307;DHT22;3186;54.062;9.962;2022-10-16T05:42:04;12.60;99.90
6307;DHT22;3186;54.062;9.962;2022-10-16T05:44:31;12.60;99.90
6307;DHT22;3186;54.062;9.962;2022-10-16T05:46:57;12.60;99.90
6307;DHT22;3186;54.062;9.962;2022-10-16T05:49:23;12.60;99.90
6307;DHT22;3186;54.062;9.962;2022-10-16T05:51:48;12.60;99.90
6307;DHT22;3186;54.062;9.962;2022-10-16T05:54:14;12.60;99.90
6307;DHT22;3186;54.062;9.962;2022-10-16T05:56:40;12.50;99.90
6307;DHT22;3186;54.062;9.962;2022-10-16T05:59:06;12.50;99.90
6307;DHT22;3186;54.062;9.962;2022-10-16T06:01:33;12.60;99.90
6307;DHT22;3186;54.062;9.962;2022-10-16T06:03:59;12.50;99.90
6307;DHT22;3186;54.062;9.962;2022-10-16T06:06:26;12.50;99.90
6307;DHT22;3186;54.062;9.962;2022-10-16T06:08:54;12.50;99.90
6307;DHT22;3186;54.062;9.962;2022-10-16T06:11:28;12.50;99.90
6307;DHT22;3186;54.062;9.962;2022-10-16T06:13:56;12.50;99.90
6307;DHT22;3186;54.062;9.962;2022-10-16T06:16:23;12.50;99.90
6307;DHT22;3186;54.062;9.962;2022-10-16T06:18:54;12.50;99.90
6307;DHT22;3186;54.062;9.962;2022-10-16T06:21:24;12.60;99.90
6307;DHT22;3186;54.062;9.962;2022-10-16T06:23:50;12.50;99.90
6307;DHT22;3186;54.062;9.962;2022-10-16T06:26:19;12.60;99.90
6307;DHT22;3186;54.062;9.962;2022-10-16T06:28:45;12.60;99.90
6307;DHT22;3186;54.062;9.962;2022-10-16T06:31:12;12.60;99.90
6307;DHT22;3186;54.062;9.962;2022-10-16T06:33:38;12.60;99.90
6307;DHT22;3186;54.062;9.962;2022-10-16T06:36:07;12.60;99.90
6307;DHT22;3186;54.062;9.962;2022-10-16T06:38:34;12.60;99.90
6307;DHT22;3186;54.062;9.962;2022-10-16T06:41:00;12.60;99.90
6307;DHT22;3186;54.062;9.962;2022-10-16T06:43:28;12.50;99.90
6307;DHT22;3186;54.062;9.962;2022-10-16T06:45:57;12.60;99.90
6307;DHT22;3186;54.062;9.962;2022-10-16T06:48:24;12.70;99.90
6307;DHT22;3186;54.062;9.962;2022-10-16T06:53:30;12.70;99.90
6307;DHT22;3186;54.062;9.962;2022-10-16T06:55:56;12.70;99.90
6307;DHT22;3186;54.062;9.962;2022-10-16T06:58:22;12.60;99.90
6307;DHT22;3186;54.062;9.962;2022-10-16T07:00:49;12.70;99.90
6307;DHT22;3186;54.062;9.962;2022-10-16T07:03:15;12.70;99.90
6307;DHT22;3186;54.062;9.962;2022-10-16T07:05:42;12.70;99.90
6307;DHT22;3186;54.062;9.962;2022-10-16T07:08:08;12.70;99.90
6307;DHT22;3186;54.062;9.962;2022-10-16T07:10:35;12.70;99.90
6307;DHT22;3186;54.062;9.962;2022-10-16T07:13:01;12.70;99.90
6307;DHT22;3186;54.062;9.962;2022-10-16T07:15:27;12.70;99.90
6307;DHT22;3186;54.062;9.962;2022-10-16T07:17:53;12.70;99.90
6307;DHT22;3186;54.062;9.962;2022-10-16T07:20:19;12.80;99.90
6307;DHT22;3186;54.062;9.962;2022-10-16T07:22:45;13.00;99.90
6307;DHT22;3186;54.062;9.962;2022-10-16T07:25:11;12.90;99.90
6307;DHT22;3186;54.062;9.962;2022-10-16T07:27:37;12.80;99.90
6307;DHT22;3186;54.062;9.962;2022-10-16T07:30:04;12.90;99.90
6307;DHT22;3186;54.062;9.962;2022-10-16T07:32:31;12.90;99.90
6307;DHT22;3186;54.062;9.962;2022-10-16T07:34:58;12.90;99.90
6307;DHT22;3186;54.062;9.962;2022-10-16T07:37:23;12.90;99.90
6307;DHT22;3186;54.062;9.962;2022-10-16T07:39:49;13.00;99.90
6307;DHT22;3186;54.062;9.962;2022-10-16T07:42:15;12.90;99.90
6307;DHT22;3186;54.062;9.962;2022-10-16T07:44:41;12.90;99.90
6307;DHT22;3186;54.062;9.962;2022-10-16T07:47:07;12.90;99.90
6307;DHT22;3186;54.062;9.962;2022-10-16T07:49:33;13.00;99.90
6307;DHT22;3186;54.062;9.962;2022-10-16T07:51:59;13.00;99.90
6307;DHT22;3186;54.062;9.962;2022-10-16T07:54:25;13.00;99.90
6307;DHT22;3186;54.062;9.962;2022-10-16T07:56:51;13.00;99.90
6307;DHT22;3186;54.062;9.962;2022-10-16T07:59:16;13.10;99.90
6307;DHT22;3186;54.062;9.962;2022-10-16T08:01:42;13.10;99.90
6307;DHT22;3186;54.062;9.962;2022-10-16T08:04:09;13.20;99.90
6307;DHT22;3186;54.062;9.962;2022-10-16T08:06:37;13.20;99.90
6307;DHT22;3186;54.062;9.962;2022-10-16T08:09:03;13.30;99.90
6307;DHT22;3186;54.062;9.962;2022-10-16T08:11:29;13.30;99.90
6307;DHT22;3186;54.062;9.962;2022-10-16T08:13:55;12.60;99.90
6307;DHT22;3186;54.062;9.962;2022-10-16T08:16:21;13.40;99.90
6307;DHT22;3186;54.062;9.962;2022-10-16T08:18:47;13.30;99.90
6307;DHT22;3186;54.062;9.962;2022-10-16T08:21:18;13.40;99.90
6307;DHT22;3186;54.062;9.962;2022-10-16T08:23:44;13.30;99.90
6307;DHT22;3186;54.062;9.962;2022-10-16T08:26:10;13.30;99.90
6307;DHT22;3186;54.062;9.962;2022-10-16T08:28:36;13.50;99.90
6307;DHT22;3186;54.062;9.962;2022-10-16T08:31:11;13.40;99.90
6307;DHT22;3186;54.062;9.962;2022-10-16T08:33:38;13.40;99.90
6307;DHT22;3186;54.062;9.962;2022-10-16T08:36:05;13.50;99.90
6307;DHT22;3186;54.062;9.962;2022-10-16T08:38:32;13.60;99.90
6307;DHT22;3186;54.062;9.962;2022-10-16T08:41:19;13.60;99.90
6307;DHT22;3186;54.062;9.962;2022-10-16T08:46:55;13.70;99.90
6307;DHT22;3186;54.062;9.962;2022-10-16T08:49:26;13.70;99.90
6307;DHT22;3186;54.062;9.962;2022-10-16T08:51:53;13.80;99.90
6307;DHT22;3186;54.062;9.962;2022-10-16T08:54:34;13.90;99.90
6307;DHT22;3186;54.062;9.962;2022-10-16T08:57:13;14.00;99.90
6307;DHT22;3186;54.062;9.962;2022-10-16T08:59:39;13.80;99.90
6307;DHT22;3186;54.062;9.962;2022-10-16T09:08:03;14.00;99.90
6307;DHT22;3186;54.062;9.962;2022-10-16T09:10:58;14.10;99.90
6307;DHT22;3186;54.062;9.962;2022-10-16T09:16:56;14.30;99.90
6307;DHT22;3186;54.062;9.962;2022-10-16T09:19:34;14.30;99.90
6307;DHT22;3186;54.062;9.962;2022-10-16T09:22:08;14.40;99.90
6307;DHT22;3186;54.062;9.962;2022-10-16T09:24:36;14.30;99.90
6307;DHT22;3186;54.062;9.962;2022-10-16T09:27:02;14.30;99.90
6307;DHT22;3186;54.062;9.962;2022-10-16T09:29:28;14.40;99.90
6307;DHT22;3186;54.062;9.962;2022-10-16T09:31:55;14.40;99.90
6307;DHT22;3186;54.062;9.962;2022-10-16T09:34:37;14.40;99.90
6307;DHT22;3186;54.062;9.962;2022-10-16T09:37:09;14.50;99.90
6307;DHT22;3186;54.062;9.962;2022-10-16T09:39:53;14.50;99.90
6307;DHT22;3186;54.062;9.962;2022-10-16T09:42:35;14.50;99.90
6307;DHT22;3186;54.062;9.962;2022-10-16T09:45:03;14.60;99.90
6307;DHT22;3186;54.062;9.962;2022-10-16T09:47:31;14.80;99.90
6307;DHT22;3186;54.062;9.962;2022-10-16T09:50:13;14.90;99.90
6307;DHT22;3186;54.062;9.962;2022-10-16T09:52:44;14.80;99.90
6307;DHT22;3186;54.062;9.962;2022-10-16T09:55:16;14.80;99.90
6307;DHT22;3186;54.062;9.962;2022-10-16T09:57:50;15.00;99.90
6307;DHT22;3186;54.062;9.962;2022-10-16T10:00:17;15.00;99.90
6307;DHT22;3186;54.062;9.962;2022-10-16T10:02:44;14.90;99.90
6307;DHT22;3186;54.062;9.962;2022-10-16T10:05:24;15.30;99.90
6307;DHT22;3186;54.062;9.962;2022-10-16T10:08:01;15.40;99.90
6307;DHT22;3186;54.062;9.962;2022-10-16T10:10:42;15.50;99.90
6307;DHT22;3186;54.062;9.962;2022-10-16T10:13:23;15.50;99.90
6307;DHT22;3186;54.062;9.962;2022-10-16T10:15:50;15.70;99.90
6307;DHT22;3186;54.062;9.962;2022-10-16T10:18:20;15.60;99.90
6307;DHT22;3186;54.062;9.962;2022-10-16T10:21:02;15.40;99.90
6307;DHT22;3186;54.062;9.962;2022-10-16T10:23:29;15.60;99.90
6307;DHT22;3186;54.062;9.962;2022-10-16T10:31:39;15.90;99.90
6307;DHT22;3186;54.062;9.962;2022-10-16T10:34:30;16.00;99.90
6307;DHT22;3186;54.062;9.962;2022-10-16T10:40:05;16.10;99.90
6307;DHT22;3186;54.062;9.962;2022-10-16T10:42:51;16.20;99.90
6307;DHT22;3186;54.062;9.962;2022-10-16T10:45:47;16.30;99.90
6307;DHT22;3186;54.062;9.962;2022-10-16T10:51:13;16.40;99.90
6307;DHT22;3186;54.062;9.962;2022-10-16T11:01:58;16.40;99.90
6307;DHT22;3186;54.062;9.962;2022-10-16T11:07:23;16.70;99.90
6307;DHT22;3186;54.062;9.962;2022-10-16T11:10:20;17.00;99.90
6307;DHT22;3186;54.062;9.962;2022-10-16T11:12:55;16.80;99.90
6307;DHT22;3186;54.062;9.962;2022-10-16T11:15:29;16.60;99.90
6307;DHT22;3186;54.062;9.962;2022-10-16T11:18:16;16.70;99.90
6307;DHT22;3186;54.062;9.962;2022-10-16T11:20:47;16.70;99.90
6307;DHT22;3186;54.062;9.962;2022-10-16T11:23:28;16.80;99.90
6307;DHT22;3186;54.062;9.962;2022-10-16T11:26:04;16.90;99.90
6307;DHT22;3186;54.062;9.962;2022-10-16T11:28:37;17.10;99.90
6307;DHT22;3186;54.062;9.962;2022-10-16T11:33:43;17.40;99.90
6307;DHT22;3186;54.062;9.962;2022-10-16T11:50:00;16.90;99.90
6307;DHT22;3186;54.062;9.962;2022-10-16T11:52:56;16.70;99.90
6307;DHT22;3186;54.062;9.962;2022-10-16T11:55:47;16.80;99.90
6307;DHT22;3186;54.062;9.962;2022-10-16T11:58:23;16.70;99.90
6307;DHT22;3186;54.062;9.962;2022-10-16T12:08:54;17.50;99.90
6307;DHT22;3186;54.062;9.962;2022-10-16T12:16:59;17.30;99.90
6307;DHT22;3186;54.062;9.962;2022-10-16T12:19:27;17.40;99.90
6307;DHT22;3186;54.062;9.962;2022-10-16T12:21:58;17.50;99.90
6307;DHT22;3186;54.062;9.962;2022-10-16T12:24:37;17.40;99.90
6307;DHT22;3186;54.062;9.962;2022-10-16T12:27:29;17.50;99.90
6307;DHT22;3186;54.062;9.962;2022-10-16T12:29:59;17.60;99.90
6307;DHT22;3186;54.062;9.962;2022-10-16T12:32:32;17.60;99.90
6307;DHT22;3186;54.062;9.962;2022-10-16T12:35:03;17.60;99.90
6307;DHT22;3186;54.062;9.962;2022-10-16T12:37:37;17.50;99.90
6307;DHT22;3186;54.062;9.962;2022-10-16T12:40:24;17.30;99.90
6307;DHT22;3186;54.062;9.962;2022-10-16T12:42:55;17.30;99.90
6307;DHT22;3186;54.062;9.962;2022-10-16T12:45:34;17.40;99.90
6307;DHT22;3186;54.062;9.962;2022-10-16T12:48:02;17.30;99.90
6307;DHT22;3186;54.062;9.962;2022-10-16T12:50:37;17.30;99.90
6307;DHT22;3186;54.062;9.962;2022-10-16T12:53:18;17.40;99.90
6307;DHT22;3186;54.062;9.962;2022-10-16T12:58:46;17.60;99.90
6307;DHT22;3186;54.062;9.962;2022-10-16T13:04:54;17.40;99.90
6307;DHT22;3186;54.062;9.962;2022-10-16T13:12:55;17.40;99.90
6307;DHT22;3186;54.062;9.962;2022-10-16T13:15:38;17.50;99.90
6307;DHT22;3186;54.062;9.962;2022-10-16T13:20:52;17.40;99.90
6307;DHT22;3186;54.062;9.962;2022-10-16T13:23:23;17.30;99.90
6307;DHT22;3186;54.062;9.962;2022-10-16T13:28:33;18.60;99.90
6307;DHT22;3186;54.062;9.962;2022-10-16T13:31:01;17.40;99.90
6307;DHT22;3186;54.062;9.962;2022-10-16T13:33:42;17.30;99.90
6307;DHT22;3186;54.062;9.962;2022-10-16T13:38:47;17.30;99.90
6307;DHT22;3186;54.062;9.962;2022-10-16T13:41:16;17.30;99.90
6307;DHT22;3186;54.062;9.962;2022-10-16T13:43:49;17.30;99.90
6307;DHT22;3186;54.062;9.962;2022-10-16T13:46:20;17.20;99.90
6307;DHT22;3186;54.062;9.962;2022-10-16T13:49:11;17.40;99.90
6307;DHT22;3186;54.062;9.962;2022-10-16T13:51:37;17.40;99.90
6307;DHT22;3186;54.062;9.962;2022-10-16T13:54:03;17.30;99.90
6307;DHT22;3186;54.062;9.962;2022-10-16T13:56:31;17.50;99.90
6307;DHT22;3186;54.062;9.962;2022-10-16T13:59:02;17.50;99.90
6307;DHT22;3186;54.062;9.962;2022-10-16T14:01:30;17.50;99.90
6307;DHT22;3186;54.062;9.962;2022-10-16T14:04:03;17.60;99.90
6307;DHT22;3186;54.062;9.962;2022-10-16T14:06:30;17.70;99.90
6307;DHT22;3186;54.062;9.962;2022-10-16T14:09:06;17.60;99.90
6307;DHT22;3186;54.062;9.962;2022-10-16T14:11:34;17.60;99.90
6307;DHT22;3186;54.062;9.962;2022-10-16T14:14:04;17.50;99.90
6307;DHT22;3186;54.062;9.962;2022-10-16T14:16:31;17.60;99.90
6307;DHT22;3186;54.062;9.962;2022-10-16T14:19:01;17.80;99.90
6307;DHT22;3186;54.062;9.962;2022-10-16T14:21:28;17.90;99.90
6307;DHT22;3186;54.062;9.962;2022-10-16T14:23:54;17.80;99.90
6307;DHT22;3186;54.062;9.962;2022-10-16T14:26:24;17.60;99.90
6307;DHT22;3186;54.062;9.962;2022-10-16T14:29:14;17.60;99.90
6307;DHT22;3186;54.062;9.962;2022-10-16T14:31:40;17.60;99.90
6307;DHT22;3186;54.062;9.962;2022-10-16T14:34:33;17.50;99.90
6307;DHT22;3186;54.062;9.962;2022-10-16T14:37:13;17.40;99.90
6307;DHT22;3186;54.062;9.962;2022-10-16T14:39:40;17.50;99.90
6307;DHT22;3186;54.062;9.962;2022-10-16T14:42:14;17.50;99.90
6307;DHT22;3186;54.062;9.962;2022-10-16T14:44:40;17.50;99.90
6307;DHT22;3186;54.062;9.962;2022-10-16T14:47:12;17.40;99.90
6307;DHT22;3186;54.062;9.962;2022-10-16T14:49:41;17.40;99.90
6307;DHT22;3186;54.062;9.962;2022-10-16T14:52:11;17.50;99.90
6307;DHT22;3186;54.062;9.962;2022-10-16T14:54:38;17.50;99.90
6307;DHT22;3186;54.062;9.962;2022-10-16T14:57:04;18.50;99.90
6307;DHT22;3186;54.062;9.962;2022-10-16T14:59:35;17.50;99.90
6307;DHT22;3186;54.062;9.962;2022-10-16T15:04:53;17.40;99.90
6307;DHT22;3186;54.062;9.962;2022-10-16T15:07:22;17.40;99.90
6307;DHT22;3186;54.062;9.962;2022-10-16T15:09:50;17.40;99.90
6307;DHT22;3186;54.062;9.962;2022-10-16T15:12:16;17.50;99.90
6307;DHT22;3186;54.062;9.962;2022-10-16T15:14:42;17.50;99.90
6307;DHT22;3186;54.062;9.962;2022-10-16T15:17:11;17.40;99.90
6307;DHT22;3186;54.062;9.962;2022-10-16T15:19:37;17.40;99.90
6307;DHT22;3186;54.062;9.962;2022-10-16T15:22:03;17.20;99.90
6307;DHT22;3186;54.062;9.962;2022-10-16T15:24:29;17.20;99.90
6307;DHT22;3186;54.062;9.962;2022-10-16T15:26:55;17.20;99.90
6307;DHT22;3186;54.062;9.962;2022-10-16T15:29:21;17.30;99.90
6307;DHT22;3186;54.062;9.962;2022-10-16T15:31:47;17.30;99.90
6307;DHT22;3186;54.062;9.962;2022-10-16T15:34:13;17.40;99.90
6307;DHT22;3186;54.062;9.962;2022-10-16T15:36:39;17.40;99.90
6307;DHT22;3186;54.062;9.962;2022-10-16T15:39:19;17.30;99.90
6307;DHT22;3186;54.062;9.962;2022-10-16T15:41:46;17.30;99.90
6307;DHT22;3186;54.062;9.962;2022-10-16T15:44:17;17.20;99.90
6307;DHT22;3186;54.062;9.962;2022-10-16T15:46:43;17.20;99.90
6307;DHT22;3186;54.062;9.962;2022-10-16T15:49:09;17.00;99.90
6307;DHT22;3186;54.062;9.962;2022-10-16T15:51:40;17.00;99.90
6307;DHT22;3186;54.062;9.962;2022-10-16T15:54:06;17.00;99.90
6307;DHT22;3186;54.062;9.962;2022-10-16T15:56:32;17.00;99.90
6307;DHT22;3186;54.062;9.962;2022-10-16T15:58:59;16.90;99.90
6307;DHT22;3186;54.062;9.962;2022-10-16T16:01:26;16.90;99.90
6307;DHT22;3186;54.062;9.962;2022-10-16T16:03:53;16.80;99.90
6307;DHT22;3186;54.062;9.962;2022-10-16T16:06:19;16.70;99.90
6307;DHT22;3186;54.062;9.962;2022-10-16T16:08:45;16.70;99.90
6307;DHT22;3186;54.062;9.962;2022-10-16T16:11:13;16.80;99.90
6307;DHT22;3186;54.062;9.962;2022-10-16T16:13:40;16.80;99.90
6307;DHT22;3186;54.062;9.962;2022-10-16T16:16:08;16.70;99.90
6307;DHT22;3186;54.062;9.962;2022-10-16T16:18:34;16.70;99.90
6307;DHT22;3186;54.062;9.962;2022-10-16T16:21:00;16.60;99.90
6307;DHT22;3186;54.062;9.962;2022-10-16T16:23:26;16.60;99.90
6307;DHT22;3186;54.062;9.962;2022-10-16T16:26:11;16.50;99.90
6307;DHT22;3186;54.062;9.962;2022-10-16T16:28:39;16.40;99.90
6307;DHT22;3186;54.062;9.962;2022-10-16T16:31:06;16.40;99.90
6307;DHT22;3186;54.062;9.962;2022-10-16T16:33:32;16.30;99.90
6307;DHT22;3186;54.062;9.962;2022-10-16T16:36:04;16.30;99.90
6307;DHT22;3186;54.062;9.962;2022-10-16T16:38:32;16.20;99.90
6307;DHT22;3186;54.062;9.962;2022-10-16T16:40:58;16.10;99.90
6307;DHT22;3186;54.062;9.962;2022-10-16T16:43:25;16.10;99.90
6307;DHT22;3186;54.062;9.962;2022-10-16T16:45:52;16.10;99.90
6307;DHT22;3186;54.062;9.962;2022-10-16T16:48:18;16.00;99.90
6307;DHT22;3186;54.062;9.962;2022-10-16T16:50:44;16.00;99.90
6307;DHT22;3186;54.062;9.962;2022-10-16T16:53:10;16.00;99.90
6307;DHT22;3186;54.062;9.962;2022-10-16T16:55:36;15.80;99.90
6307;DHT22;3186;54.062;9.962;2022-10-16T16:58:02;15.80;99.90
6307;DHT22;3186;54.062;9.962;2022-10-16T17:00:29;15.80;99.90
6307;DHT22;3186;54.062;9.962;2022-10-16T17:02:56;15.80;99.90
6307;DHT22;3186;54.062;9.962;2022-10-16T17:05:22;15.70;99.90
6307;DHT22;3186;54.062;9.962;2022-10-16T17:07:49;15.70;99.90
6307;DHT22;3186;54.062;9.962;2022-10-16T17:10:15;15.60;99.90
6307;DHT22;3186;54.062;9.962;2022-10-16T17:12:40;15.60;99.90
6307;DHT22;3186;54.062;9.962;2022-10-16T17:15:07;15.50;99.90
6307;DHT22;3186;54.062;9.962;2022-10-16T17:17:32;15.50;99.90
6307;DHT22;3186;54.062;9.962;2022-10-16T17:19:58;15.30;99.90
6307;DHT22;3186;54.062;9.962;2022-10-16T17:22:24;15.40;99.90
6307;DHT22;3186;54.062;9.962;2022-10-16T17:24:50;15.30;99.90
6307;DHT22;3186;54.062;9.962;2022-10-16T17:27:17;15.30;99.90
6307;DHT22;3186;54.062;9.962;2022-10-16T17:29:44;15.20;99.90
6307;DHT22;3186;54.062;9.962;2022-10-16T17:32:09;15.20;99.90
6307;DHT22;3186;54.062;9.962;2022-10-16T17:34:36;15.20;99.90
6307;DHT22;3186;54.062;9.962;2022-10-16T17:37:02;15.10;99.90
6307;DHT22;3186;54.062;9.962;2022-10-16T17:39:28;15.10;99.90
6307;DHT22;3186;54.062;9.962;2022-10-16T17:41:54;15.00;99.90
6307;DHT22;3186;54.062;9.962;2022-10-16T17:44:20;15.00;99.90
6307;DHT22;3186;54.062;9.962;2022-10-16T17:46:48;15.00;99.90
6307;DHT22;3186;54.062;9.962;2022-10-16T17:49:14;14.90;99.90
6307;DHT22;3186;54.062;9.962;2022-10-16T17:51:40;14.80;99.90
6307;DHT22;3186;54.062;9.962;2022-10-16T17:54:06;14.80;99.90
6307;DHT22;3186;54.062;9.962;2022-10-16T17:56:32;14.70;99.90
6307;DHT22;3186;54.062;9.962;2022-10-16T17:59:00;14.70;99.90
6307;DHT22;3186;54.062;9.962;2022-10-16T18:03:56;14.70;99.90
6307;DHT22;3186;54.062;9.962;2022-10-16T18:06:23;14.60;99.90